Keumyang Family — DSNO8 — position and weather

sailwx.info

Track history (hours):
 
Tides and Currents Weather Stations Pressure Air Temp Water Temp Dewpoint Dewpoint Depression Visibility Wind Speed Wind Dir Waves Ship Positions

Keumyang Family

Last reported at 2015-Mar-31 04:24 UTC. Time now 2015-Apr-01 03:10 UTC.
Position N 35°04' E 139°39'.

Length 95 m; draft 4.1 m.

Type: Cargo ship. MMSI: 441416000.

Date/timePositionNaut miles runAvg speedWind from/ knotsBaromVisibWave heightAir tempDewpointWater temp
2015-Mar-31 04:24N 35°04' E 139°39'911.1
2015-Mar-31 03:33N 35°11' E 139°46'1110.8
2015-Mar-31 02:33N 35°22' E 139°42'1111.0
2015-Mar-31 01:33N 35°30' E 139°51'1110.9
2015-Mar-31 00:33N 35°39' E 139°59'2 1.7
2015-Mar-30 23:30N 35°41' E 139°58'0 0.0
2015-Mar-30 22:24N 35°41' E 139°58'0 0.1
2015-Mar-30 21:30N 35°41' E 139°58'0 0.0
2015-Mar-30 20:33N 35°41' E 139°58'0 0.0
2015-Mar-30 19:33N 35°41' E 139°58'0 0.0
2015-Mar-30 18:34N 35°41' E 139°58'0 0.0
2015-Mar-30 17:33N 35°41' E 139°58'0 0.0
2015-Mar-30 16:33N 35°41' E 139°58'0 0.0
2015-Mar-30 15:33N 35°41' E 139°58'0 0.0
2015-Mar-30 14:33N 35°41' E 139°58'0 0.0
2015-Mar-30 13:33N 35°41' E 139°58'0 0.0
2015-Mar-30 12:33N 35°41' E 139°58'0 0.0
2015-Mar-30 11:33N 35°41' E 139°58'0 0.0
2015-Mar-30 10:33N 35°41' E 139°58'0 0.0
2015-Mar-30 09:33N 35°41' E 139°58'1 1.3
2015-Mar-30 08:33N 35°40' E 139°59'5 5.1
2015-Mar-30 07:33N 35°35' E 139°60'6 6.0
2015-Mar-30 06:33N 35°40' E 139°59'0 0.1
2015-Mar-30 05:33N 35°40' E 139°59'0 0.0
2015-Mar-30 04:33N 35°40' E 139°59'0 0.0
2015-Mar-30 03:33N 35°40' E 139°59'0 0.0
2015-Mar-30 02:33N 35°40' E 139°59'0 0.0
2015-Mar-30 01:33N 35°40' E 139°59'0 0.0
2015-Mar-30 00:33N 35°40' E 139°59'0 0.0
2015-Mar-29 23:33N 35°40' E 139°59'1 1.5
2015-Mar-29 22:33N 35°39' E 139°59'4 4.0
2015-Mar-29 21:33N 35°35' E 139°60'0 0.2
2015-Mar-29 20:30N 35°35' E 139°60'0 0.0
2015-Mar-29 19:24N 35°35' E 139°60'0 0.1
2015-Mar-29 18:32N 35°35' E 139°60'0 0.0
2015-Mar-29 17:33N 35°35' E 139°60'0 0.0
2015-Mar-29 16:33N 35°35' E 139°60'3 2.6
2015-Mar-29 15:33N 35°33' E 139°57'1110.5
2015-Mar-29 14:33N 35°26' E 139°48'1010.1
2015-Mar-29 13:33N 35°16' E 139°47'1111.4
2015-Mar-29 12:33N 35°05' E 139°43'1211.8
2015-Mar-29 11:34N 34°57' E 139°32'222 8.6
2015-Mar-28 09:33N 34°34' E 135°03'12 9.3
2015-Mar-28 08:19N 34°33' E 134°49'  
Track history (hours):
 
Tides and Currents Weather Stations Pressure Air Temp Water Temp Dewpoint Dewpoint Depression Visibility Wind Speed Wind Dir Waves Ship Positions

Keumyang Family

Last reported at 2015-Mar-31 04:24 UTC. Time now 2015-Apr-01 03:10 UTC.
Position N 35°04' E 139°39'.

Length 95 m; draft 4.1 m.

Type: Cargo ship. MMSI: 441416000.

Date/timePositionNaut miles runAvg speedWind from/ knotsBaromVisibWave heightAir tempDewpointWater temp
2015-Mar-31 04:24N 35°04' E 139°39'911.1
2015-Mar-31 03:33N 35°11' E 139°46'1110.8
2015-Mar-31 02:33N 35°22' E 139°42'1111.0
2015-Mar-31 01:33N 35°30' E 139°51'1110.9
2015-Mar-31 00:33N 35°39' E 139°59'2 1.7
2015-Mar-30 23:30N 35°41' E 139°58'0 0.0
2015-Mar-30 22:24N 35°41' E 139°58'0 0.1
2015-Mar-30 21:30N 35°41' E 139°58'0 0.0
2015-Mar-30 20:33N 35°41' E 139°58'0 0.0
2015-Mar-30 19:33N 35°41' E 139°58'0 0.0
2015-Mar-30 18:34N 35°41' E 139°58'0 0.0
2015-Mar-30 17:33N 35°41' E 139°58'0 0.0
2015-Mar-30 16:33N 35°41' E 139°58'0 0.0
2015-Mar-30 15:33N 35°41' E 139°58'0 0.0
2015-Mar-30 14:33N 35°41' E 139°58'0 0.0
2015-Mar-30 13:33N 35°41' E 139°58'0 0.0
2015-Mar-30 12:33N 35°41' E 139°58'0 0.0
2015-Mar-30 11:33N 35°41' E 139°58'0 0.0
2015-Mar-30 10:33N 35°41' E 139°58'0 0.0
2015-Mar-30 09:33N 35°41' E 139°58'1 1.3
2015-Mar-30 08:33N 35°40' E 139°59'5 5.1
2015-Mar-30 07:33N 35°35' E 139°60'6 6.0
2015-Mar-30 06:33N 35°40' E 139°59'0 0.1
2015-Mar-30 05:33N 35°40' E 139°59'0 0.0
2015-Mar-30 04:33N 35°40' E 139°59'0 0.0
2015-Mar-30 03:33N 35°40' E 139°59'0 0.0
2015-Mar-30 02:33N 35°40' E 139°59'0 0.0
2015-Mar-30 01:33N 35°40' E 139°59'0 0.0
2015-Mar-30 00:33N 35°40' E 139°59'0 0.0
2015-Mar-29 23:33N 35°40' E 139°59'1 1.5
2015-Mar-29 22:33N 35°39' E 139°59'4 4.0
2015-Mar-29 21:33N 35°35' E 139°60'0 0.2
2015-Mar-29 20:30N 35°35' E 139°60'0 0.0
2015-Mar-29 19:24N 35°35' E 139°60'0 0.1
2015-Mar-29 18:32N 35°35' E 139°60'0 0.0
2015-Mar-29 17:33N 35°35' E 139°60'0 0.0
2015-Mar-29 16:33N 35°35' E 139°60'3 2.6
2015-Mar-29 15:33N 35°33' E 139°57'1110.5
2015-Mar-29 14:33N 35°26' E 139°48'1010.1
2015-Mar-29 13:33N 35°16' E 139°47'1111.4
2015-Mar-29 12:33N 35°05' E 139°43'1211.8
2015-Mar-29 11:34N 34°57' E 139°32'222 8.6
2015-Mar-28 09:33N 34°34' E 135°03'12 9.3
2015-Mar-28 08:19N 34°33' E 134°49'  

Dump ship's entire track history